createdAt,value
2018-07-22T00:00:53.161Z,6.13
2018-07-22T00:03:22.880Z,7.10
2018-07-22T00:05:52.586Z,4.50
2018-07-22T00:08:22.172Z,7.43
2018-07-22T00:10:51.814Z,6.23
2018-07-22T00:13:21.378Z,6.37
2018-07-22T00:15:51.033Z,6.07
2018-07-22T00:18:20.645Z,7.07
2018-07-22T00:20:50.290Z,6.17
2018-07-22T00:23:19.919Z,6.03
2018-07-22T00:25:49.621Z,6.13
2018-07-22T00:28:19.244Z,5.90
2018-07-22T00:30:48.869Z,6.20
2018-07-22T00:33:18.498Z,6.03
2018-07-22T00:35:48.100Z,6.40
2018-07-22T00:38:17.708Z,6.07
2018-07-22T00:40:47.403Z,4.90
2018-07-22T00:43:16.955Z,5.73
2018-07-22T00:45:46.607Z,6.27
2018-07-22T00:48:16.307Z,5.40
2018-07-22T00:50:46.033Z,5.93
2018-07-22T00:53:15.672Z,5.60
2018-07-22T00:55:45.346Z,6.20
2018-07-22T00:58:15.102Z,5.80
2018-07-22T01:00:44.705Z,5.60
2018-07-22T01:03:14.374Z,4.97
2018-07-22T01:05:44.047Z,5.90
2018-07-22T01:08:13.793Z,5.33
2018-07-22T01:10:43.748Z,5.60
2018-07-22T01:13:13.365Z,5.00
2018-07-22T01:15:42.953Z,5.20
2018-07-22T01:18:12.647Z,6.33
2018-07-22T01:20:42.326Z,6.10
2018-07-22T01:23:11.916Z,7.20
2018-07-22T01:25:41.511Z,5.93
2018-07-22T01:28:11.157Z,5.70
2018-07-22T01:30:40.826Z,6.10
2018-07-22T01:33:10.401Z,6.37
2018-07-22T01:35:40.029Z,5.27
2018-07-22T01:38:09.685Z,4.80
2018-07-22T01:40:39.325Z,6.37
2018-07-22T01:43:09.175Z,6.03
2018-07-22T01:45:38.804Z,6.10
2018-07-22T01:48:08.507Z,6.10
2018-07-22T01:50:38.177Z,6.10
2018-07-22T01:53:07.895Z,7.63
2018-07-22T01:55:37.512Z,5.97
2018-07-22T01:58:07.211Z,6.20
2018-07-22T02:00:36.833Z,5.90
2018-07-22T02:03:06.743Z,6.87
2018-07-22T02:05:36.366Z,6.63
2018-07-22T02:08:06.164Z,5.93
2018-07-22T02:10:35.745Z,6.40
2018-07-22T02:13:05.578Z,5.10
2018-07-22T02:15:35.219Z,7.30
2018-07-22T02:18:04.978Z,5.87
2018-07-22T02:20:34.655Z,6.10
2018-07-22T02:23:04.212Z,5.40
2018-07-22T02:25:33.822Z,7.07
2018-07-22T02:28:03.477Z,5.87
2018-07-22T02:30:33.056Z,6.70
2018-07-22T02:33:02.639Z,6.07
2018-07-22T02:35:32.192Z,5.63
2018-07-22T02:38:01.869Z,5.63
2018-07-22T02:40:31.540Z,6.47
2018-07-22T02:43:01.232Z,6.50
2018-07-22T02:45:30.869Z,6.93
2018-07-22T02:48:00.576Z,6.17
2018-07-22T02:50:30.283Z,6.20
2018-07-22T02:52:59.860Z,5.60
2018-07-22T02:55:29.516Z,6.47
2018-07-22T02:57:59.188Z,7.17
2018-07-22T03:00:28.852Z,7.30
2018-07-22T03:02:58.533Z,6.63
2018-07-22T03:05:28.149Z,7.37
2018-07-22T03:07:57.777Z,6.43
2018-07-22T03:10:27.243Z,6.27
2018-07-22T03:12:56.893Z,5.37
2018-07-22T03:15:26.543Z,6.70
2018-07-22T03:17:56.153Z,5.90
2018-07-22T03:20:25.747Z,5.30
2018-07-22T03:22:55.403Z,6.17
2018-07-22T03:25:25.042Z,5.80
2018-07-22T03:27:54.791Z,5.90
2018-07-22T03:30:24.456Z,6.70
2018-07-22T03:32:54.064Z,5.47
2018-07-22T03:35:23.729Z,6.00
2018-07-22T03:37:53.305Z,5.67
2018-07-22T03:40:22.960Z,5.83
2018-07-22T03:42:52.683Z,6.13
2018-07-22T03:45:22.294Z,5.33
2018-07-22T03:47:51.905Z,6.53
2018-07-22T03:50:21.529Z,7.40
2018-07-22T03:52:51.167Z,5.87
2018-07-22T03:55:20.850Z,5.70
2018-07-22T03:57:50.497Z,6.50
2018-07-22T04:00:20.195Z,6.00
2018-07-22T04:02:49.870Z,5.37
2018-07-22T04:05:19.528Z,6.30
2018-07-22T04:07:49.138Z,6.20
2018-07-22T04:10:18.807Z,5.87
2018-07-22T04:12:48.461Z,5.60
2018-07-22T04:15:18.091Z,5.10
2018-07-22T04:17:47.723Z,5.83
2018-07-22T04:20:17.296Z,6.30
2018-07-22T04:22:46.883Z,6.27
2018-07-22T04:25:16.522Z,6.72
2018-07-22T04:27:46.127Z,6.03
2018-07-22T04:30:15.660Z,5.73
2018-07-22T04:32:45.389Z,5.90
2018-07-22T04:35:15.060Z,6.17
2018-07-22T04:37:44.657Z,6.30
2018-07-22T04:40:14.322Z,5.60
2018-07-22T04:42:43.953Z,6.27
2018-07-22T04:45:13.584Z,6.47
2018-07-22T04:47:44.227Z,6.40
2018-07-22T04:50:13.905Z,6.20
2018-07-22T04:52:43.647Z,6.23
2018-07-22T04:55:13.359Z,6.27
2018-07-22T04:57:43.034Z,6.13
2018-07-22T05:00:12.650Z,7.40
2018-07-22T05:02:42.345Z,6.10
2018-07-22T05:05:11.947Z,5.60
2018-07-22T05:07:41.562Z,6.03
2018-07-22T05:10:11.174Z,5.90
2018-07-22T05:12:40.761Z,5.90
2018-07-22T05:15:10.395Z,5.10
2018-07-22T05:17:40.034Z,6.23
2018-07-22T05:20:09.619Z,6.70
2018-07-22T05:22:39.251Z,6.67
2018-07-22T05:25:08.963Z,6.27
2018-07-22T05:27:38.614Z,5.80
2018-07-22T05:30:08.306Z,6.40
2018-07-22T05:32:37.949Z,5.37
2018-07-22T05:35:07.605Z,5.70
2018-07-22T05:37:37.245Z,6.10
2018-07-22T05:40:06.961Z,6.70
2018-07-22T05:42:36.605Z,5.30
2018-07-22T05:45:06.414Z,5.80
2018-07-22T05:47:36.035Z,8.47
2018-07-22T05:50:06.257Z,7.80
2018-07-22T05:52:36.028Z,7.60
2018-07-22T05:55:05.725Z,7.50
2018-07-22T05:57:35.670Z,6.80
2018-07-22T06:00:06.186Z,7.17
2018-07-22T06:02:36.121Z,5.53
2018-07-22T06:05:06.462Z,6.43
2018-07-22T06:07:36.001Z,6.17
2018-07-22T06:10:06.622Z,6.93
2018-07-22T06:12:36.266Z,6.37
2018-07-22T06:15:08.081Z,6.33
2018-07-22T06:17:37.743Z,6.83
2018-07-22T06:20:09.302Z,6.60
2018-07-22T06:22:38.591Z,6.30
2018-07-22T06:25:08.462Z,6.20
2018-07-22T06:27:38.208Z,5.60
2018-07-22T06:30:08.110Z,7.17
2018-07-22T06:32:37.841Z,8.60
2018-07-22T06:35:07.611Z,6.13
2018-07-22T06:37:37.368Z,7.73
2018-07-22T06:40:07.047Z,7.33
2018-07-22T06:42:36.710Z,8.53
2018-07-22T06:45:06.570Z,7.00
2018-07-22T06:47:36.263Z,8.90
2018-07-22T06:50:06.568Z,10.27
2018-07-22T06:52:36.232Z,10.07
2018-07-22T06:55:05.571Z,9.70
2018-07-22T06:57:35.203Z,10.30
2018-07-22T07:00:05.541Z,9.43
2018-07-22T07:02:35.295Z,9.50
2018-07-22T07:05:05.239Z,10.83
2018-07-22T07:07:34.813Z,9.37
2018-07-22T07:10:04.971Z,10.50
2018-07-22T07:12:34.605Z,10.37
2018-07-22T07:15:04.319Z,10.75
2018-07-22T07:17:34.027Z,11.13
2018-07-22T07:20:03.774Z,10.67
2018-07-22T07:22:33.424Z,9.03
2018-07-22T07:25:03.134Z,10.50
2018-07-22T07:27:32.771Z,8.90
2018-07-22T07:30:02.770Z,7.30
2018-07-22T07:32:32.422Z,8.47
2018-07-22T07:35:02.210Z,7.27
2018-07-22T07:37:31.895Z,6.20
2018-07-22T07:40:01.567Z,5.87
2018-07-22T07:42:31.077Z,6.23
2018-07-22T07:45:00.739Z,7.30
2018-07-22T07:47:30.434Z,5.80
2018-07-22T07:50:00.095Z,6.43
2018-07-22T07:52:29.839Z,6.50
2018-07-22T07:54:59.484Z,6.10
2018-07-22T07:57:29.157Z,5.30
2018-07-22T07:59:58.901Z,5.00
2018-07-22T08:02:28.564Z,4.53
2018-07-22T08:04:58.216Z,4.53
2018-07-22T08:07:27.899Z,4.83
2018-07-22T08:09:57.440Z,5.17
2018-07-22T08:12:27.064Z,5.43
2018-07-22T08:14:56.909Z,4.77
2018-07-22T08:17:26.520Z,5.20
2018-07-22T08:19:56.165Z,4.93
2018-07-22T08:22:25.915Z,5.90
2018-07-22T08:24:55.662Z,5.97
2018-07-22T08:27:25.346Z,5.87
2018-07-22T08:29:55.067Z,4.60
2018-07-22T08:32:24.735Z,5.17
2018-07-22T08:34:54.307Z,4.13
2018-07-22T08:37:23.984Z,4.13
2018-07-22T08:39:53.640Z,4.73
2018-07-22T08:42:23.230Z,4.57
2018-07-22T08:44:52.894Z,3.90
2018-07-22T08:47:22.175Z,4.10
2018-07-22T08:49:51.863Z,4.90
2018-07-22T08:52:21.420Z,4.43
2018-07-22T08:54:51.046Z,4.23
2018-07-22T08:57:20.674Z,4.30
2018-07-22T08:59:50.353Z,4.37
2018-07-22T09:02:20.045Z,4.33
2018-07-22T09:04:49.755Z,3.90
2018-07-22T09:07:19.383Z,3.70
2018-07-22T09:09:49.086Z,3.00
2018-07-22T09:12:18.733Z,3.83
2018-07-22T09:14:48.394Z,3.60
2018-07-22T09:17:18.055Z,3.90
2018-07-22T09:19:47.723Z,3.30
2018-07-22T09:22:17.380Z,3.40
2018-07-22T09:24:46.999Z,3.43
2018-07-22T09:27:16.647Z,3.30
2018-07-22T09:29:46.308Z,4.00
2018-07-22T09:32:16.046Z,3.70
2018-07-22T09:34:45.662Z,3.53
2018-07-22T09:37:15.312Z,3.33
2018-07-22T09:39:44.970Z,3.30
2018-07-22T09:42:14.655Z,4.00
2018-07-22T09:44:44.162Z,3.73
2018-07-22T09:47:13.854Z,3.30
2018-07-22T09:49:43.640Z,3.30
2018-07-22T09:52:13.339Z,3.70
2018-07-22T09:54:42.953Z,3.77
2018-07-22T09:57:12.638Z,4.13
2018-07-22T09:59:42.304Z,3.73
2018-07-22T10:02:11.932Z,3.30
2018-07-22T10:04:41.649Z,3.70
2018-07-22T10:07:11.194Z,3.60
2018-07-22T10:09:40.828Z,3.30
2018-07-22T10:12:10.409Z,2.97
2018-07-22T10:14:40.066Z,3.50
2018-07-22T10:17:09.673Z,2.60
2018-07-22T10:19:39.339Z,3.63
2018-07-22T10:22:08.988Z,3.30
2018-07-22T10:24:38.688Z,3.10
2018-07-22T10:27:08.395Z,3.30
2018-07-22T10:29:37.938Z,3.20
2018-07-22T10:32:08.211Z,3.00
2018-07-22T10:34:37.851Z,2.87
2018-07-22T10:37:07.487Z,3.47
2018-07-22T10:39:36.902Z,2.70
2018-07-22T10:42:06.572Z,3.00
2018-07-22T10:44:36.311Z,2.83
2018-07-22T10:47:06.102Z,3.77
2018-07-22T10:49:36.155Z,3.20
2018-07-22T10:52:05.869Z,2.90
2018-07-22T10:54:35.481Z,3.13
2018-07-22T10:57:05.493Z,3.63
2018-07-22T10:59:35.171Z,2.77
2018-07-22T11:02:04.865Z,3.47
2018-07-22T11:04:34.499Z,3.33
2018-07-22T11:07:04.248Z,3.53
2018-07-22T11:09:33.920Z,3.27
2018-07-22T11:12:03.531Z,6.00
2018-07-22T11:14:33.194Z,2.80
2018-07-22T11:17:02.821Z,4.27
2018-07-22T11:19:32.424Z,6.77
2018-07-22T11:22:02.087Z,8.60
2018-07-22T11:24:31.821Z,5.17
2018-07-22T11:27:01.519Z,4.53
2018-07-22T11:29:31.122Z,7.67
2018-07-22T11:32:00.787Z,6.27
2018-07-22T11:34:30.381Z,4.57
2018-07-22T11:37:00.138Z,4.37
2018-07-22T11:39:29.862Z,6.80
2018-07-22T11:41:59.416Z,7.43
2018-07-22T11:44:29.066Z,6.17
2018-07-22T11:46:58.641Z,7.17
2018-07-22T11:49:28.300Z,6.00
2018-07-22T11:51:57.884Z,5.47
2018-07-22T11:54:27.556Z,4.57
2018-07-22T11:56:57.130Z,6.90
2018-07-22T11:59:26.801Z,6.60
2018-07-22T12:01:56.451Z,6.07
2018-07-22T12:04:26.085Z,5.53
2018-07-22T12:06:55.672Z,6.77
2018-07-22T12:09:25.326Z,5.40
2018-07-22T12:11:54.967Z,6.67
2018-07-22T12:14:24.605Z,5.33
2018-07-22T12:16:54.236Z,5.83
2018-07-22T12:19:23.852Z,5.37
2018-07-22T12:21:53.471Z,4.50
2018-07-22T12:24:23.126Z,4.53
2018-07-22T12:26:52.731Z,5.23
2018-07-22T12:29:22.524Z,4.50
2018-07-22T12:31:52.173Z,3.97
2018-07-22T12:34:21.840Z,4.67
2018-07-22T12:36:51.450Z,3.90
2018-07-22T12:39:20.964Z,3.73
2018-07-22T12:41:50.599Z,3.90
2018-07-22T12:44:20.343Z,3.20
2018-07-22T12:46:50.042Z,4.20
2018-07-22T12:49:19.593Z,4.10
2018-07-22T12:51:49.255Z,4.27
2018-07-22T12:54:18.970Z,4.40
2018-07-22T12:56:48.612Z,4.30
2018-07-22T12:59:18.243Z,4.80
2018-07-22T13:01:47.899Z,5.30
2018-07-22T13:04:17.611Z,3.77
2018-07-22T13:06:47.367Z,4.23
2018-07-22T13:09:17.061Z,4.20
2018-07-22T13:11:46.752Z,4.20
2018-07-22T13:14:16.349Z,3.60
2018-07-22T13:16:46.000Z,4.47
2018-07-22T13:19:15.590Z,3.80
2018-07-22T13:21:45.387Z,5.43
2018-07-22T13:24:14.686Z,5.00
2018-07-22T13:26:44.329Z,5.43
2018-07-22T13:29:14.027Z,5.47
2018-07-22T13:31:43.523Z,6.00
2018-07-22T13:34:13.264Z,6.27
2018-07-22T13:36:42.881Z,6.47
2018-07-22T13:39:12.878Z,6.20
2018-07-22T13:41:42.516Z,5.70
2018-07-22T13:44:12.133Z,5.57
2018-07-22T13:46:41.733Z,5.43
2018-07-22T13:49:11.325Z,5.50
2018-07-22T13:51:41.020Z,5.80
2018-07-22T13:54:10.687Z,6.13
2018-07-22T13:56:40.365Z,4.40
2018-07-22T13:59:10.045Z,4.77
2018-07-22T14:01:39.654Z,5.07
2018-07-22T14:04:09.198Z,4.50
2018-07-22T14:06:38.804Z,4.60
2018-07-22T14:09:11.012Z,4.40
2018-07-22T14:11:40.669Z,4.30
2018-07-22T14:14:10.807Z,5.03
2018-07-22T14:16:40.391Z,5.37
2018-07-22T14:19:10.104Z,4.93
2018-07-22T14:21:39.788Z,4.80
2018-07-22T14:24:09.480Z,6.30
2018-07-22T14:26:39.109Z,6.17
2018-07-22T14:29:08.736Z,4.70
2018-07-22T14:31:38.437Z,6.47
2018-07-22T14:34:08.111Z,5.57
2018-07-22T14:36:37.791Z,6.00
2018-07-22T14:39:12.933Z,7.10
2018-07-22T14:41:43.033Z,6.57
2018-07-22T14:44:12.695Z,7.07
2018-07-22T14:46:42.489Z,6.23
2018-07-22T14:49:11.946Z,5.53
2018-07-22T14:51:41.569Z,5.47
2018-07-22T14:54:11.193Z,6.10
2018-07-22T14:56:39.819Z,6.67
2018-07-22T14:59:09.487Z,7.50
2018-07-22T15:01:39.107Z,6.43
2018-07-22T15:04:08.392Z,6.40
2018-07-22T15:06:37.918Z,6.23
2018-07-22T15:09:09.300Z,7.40
2018-07-22T15:11:38.925Z,5.40
2018-07-22T15:14:08.582Z,5.30
2018-07-22T15:16:37.896Z,4.70
2018-07-22T15:19:07.627Z,7.47
2018-07-22T15:21:37.259Z,4.83
2018-07-22T15:24:06.965Z,7.43
2018-07-22T15:26:36.677Z,5.37
2018-07-22T15:29:06.452Z,5.37
2018-07-22T15:31:36.130Z,4.77
2018-07-22T15:34:05.820Z,6.00
2018-07-22T15:36:35.504Z,5.27
2018-07-22T15:39:08.195Z,6.70
2018-07-22T15:41:37.729Z,6.13
2018-07-22T15:44:07.421Z,5.30
2018-07-22T15:46:37.186Z,4.77
2018-07-22T15:49:08.111Z,4.73
2018-07-22T15:51:38.010Z,5.43
2018-07-22T15:54:07.705Z,6.00
2018-07-22T15:56:37.392Z,4.77
2018-07-22T15:59:07.306Z,4.87
2018-07-22T16:01:36.945Z,6.23
2018-07-22T16:04:06.801Z,6.10
2018-07-22T16:06:36.419Z,5.23
2018-07-22T16:09:09.918Z,4.40
2018-07-22T16:11:39.597Z,6.13
2018-07-22T16:14:09.321Z,5.30
2018-07-22T16:16:39.121Z,4.47
2018-07-22T16:19:08.866Z,5.93
2018-07-22T16:21:38.555Z,4.43
2018-07-22T16:24:08.235Z,6.20
2018-07-22T16:26:37.873Z,5.40
2018-07-22T16:29:07.512Z,4.80
2018-07-22T16:31:37.129Z,5.27
2018-07-22T16:34:06.799Z,4.20
2018-07-22T16:36:36.482Z,4.70
2018-07-22T16:39:09.205Z,4.77
2018-07-22T16:41:39.327Z,4.80
2018-07-22T16:44:08.915Z,4.40
2018-07-22T16:46:38.596Z,4.27
2018-07-22T16:49:08.244Z,4.77
2018-07-22T16:51:37.808Z,4.07
2018-07-22T16:54:07.459Z,3.80
2018-07-22T16:56:37.092Z,3.77
2018-07-22T16:59:06.721Z,5.43
2018-07-22T17:01:36.454Z,5.03
2018-07-22T17:04:06.095Z,4.13
2018-07-22T17:06:35.752Z,4.83
2018-07-22T17:09:09.012Z,3.37
2018-07-22T17:11:38.867Z,4.00
2018-07-22T17:14:08.645Z,3.50
2018-07-22T17:16:38.286Z,2.83
2018-07-22T17:19:08.132Z,2.97
2018-07-22T17:21:37.698Z,3.53
2018-07-22T17:24:07.705Z,3.03
2018-07-22T17:26:37.292Z,3.17
2018-07-22T17:29:07.038Z,4.40
2018-07-22T17:31:36.686Z,3.13
2018-07-22T17:34:06.397Z,2.93
2018-07-22T17:36:36.047Z,2.60
2018-07-22T17:39:08.872Z,2.80
2018-07-22T17:41:39.122Z,3.33
2018-07-22T17:44:09.160Z,2.57
2018-07-22T17:46:38.843Z,3.80
2018-07-22T17:49:08.731Z,2.77
2018-07-22T17:51:38.446Z,2.90
2018-07-22T17:54:08.143Z,3.07
2018-07-22T17:56:37.758Z,4.20
2018-07-22T17:59:07.481Z,2.57
2018-07-22T18:01:37.142Z,3.03
2018-07-22T18:04:06.863Z,3.20
2018-07-22T18:06:36.628Z,3.27
2018-07-22T18:09:09.242Z,3.03
2018-07-22T18:11:38.987Z,2.70
2018-07-22T18:14:08.787Z,3.97
2018-07-22T18:16:38.547Z,3.10
2018-07-22T18:19:08.170Z,3.00
2018-07-22T18:21:37.960Z,3.40
2018-07-22T18:24:07.571Z,4.83
2018-07-22T18:26:37.250Z,3.73
2018-07-22T18:29:07.122Z,3.40
2018-07-22T18:31:36.863Z,3.40
2018-07-22T18:34:06.540Z,3.70
2018-07-22T18:36:36.159Z,3.73
2018-07-22T18:39:09.763Z,3.63
2018-07-22T18:41:39.521Z,4.30
2018-07-22T18:44:09.165Z,3.30
2018-07-22T18:46:38.917Z,4.40
2018-07-22T18:49:08.875Z,3.73
2018-07-22T18:51:38.599Z,4.27
2018-07-22T18:54:08.340Z,4.83
2018-07-22T18:56:38.425Z,4.80
2018-07-22T18:59:08.462Z,4.10
2018-07-22T19:01:38.268Z,4.17
2018-07-22T19:04:08.014Z,5.47
2018-07-22T19:06:37.363Z,4.57
2018-07-22T19:09:10.204Z,4.70
2018-07-22T19:11:40.288Z,5.27
2018-07-22T19:14:10.157Z,5.90
2018-07-22T19:16:40.089Z,4.63
2018-07-22T19:19:09.791Z,4.80
2018-07-22T19:21:39.443Z,5.43
2018-07-22T19:24:09.318Z,4.90
2018-07-22T19:26:39.313Z,4.40
2018-07-22T19:29:09.186Z,4.80
2018-07-22T19:31:38.812Z,4.90
2018-07-22T19:34:08.883Z,6.10
2018-07-22T19:36:39.970Z,4.90
2018-07-22T19:39:11.525Z,5.80
2018-07-22T19:41:41.656Z,8.17
2018-07-22T19:44:11.602Z,5.67
2018-07-22T19:46:41.350Z,6.40
2018-07-22T19:49:11.369Z,6.67
2018-07-22T19:51:42.508Z,6.60
2018-07-22T19:54:14.204Z,6.83
2018-07-22T19:56:45.264Z,8.93
2018-07-22T19:59:15.805Z,7.40
2018-07-22T20:01:46.441Z,6.27
2018-07-22T20:04:16.801Z,6.13
2018-07-22T20:06:47.464Z,6.60
2018-07-22T20:09:17.614Z,8.63
2018-07-22T20:11:48.039Z,6.77
2018-07-22T20:14:19.147Z,5.87
2018-07-22T20:16:50.257Z,8.23
2018-07-22T20:19:21.830Z,6.53
2018-07-22T20:21:53.624Z,6.10
2018-07-22T20:24:24.739Z,7.47
2018-07-22T20:26:56.041Z,6.07
2018-07-22T20:29:27.993Z,7.10
2018-07-22T20:31:58.637Z,6.47
2018-07-22T20:34:29.158Z,5.57
2018-07-22T20:37:00.788Z,6.60
2018-07-22T20:39:31.022Z,6.53
2018-07-22T20:42:02.246Z,6.50
2018-07-22T20:44:32.018Z,7.70
2018-07-22T20:47:02.053Z,6.20
2018-07-22T20:49:31.823Z,6.27
2018-07-22T20:52:01.571Z,5.90
2018-07-22T20:54:31.333Z,5.07
2018-07-22T20:57:00.956Z,6.10
2018-07-22T20:59:30.574Z,5.20
2018-07-22T21:02:00.250Z,5.67
2018-07-22T21:04:29.968Z,5.60
2018-07-22T21:06:59.733Z,6.50
2018-07-22T21:09:29.372Z,7.90
2018-07-22T21:13:12.632Z,7.27
2018-07-22T21:15:42.253Z,5.70
2018-07-22T21:18:12.041Z,6.00
2018-07-22T21:20:41.834Z,5.17
2018-07-22T21:23:11.546Z,5.23
2018-07-22T21:25:41.262Z,5.20
2018-07-22T21:28:10.994Z,5.23
2018-07-22T21:30:40.695Z,5.57
2018-07-22T21:33:10.339Z,6.10
2018-07-22T21:35:39.985Z,4.90
2018-07-22T21:38:09.678Z,6.23
2018-07-22T21:40:39.438Z,6.97
2018-07-22T21:43:09.151Z,6.20
2018-07-22T21:45:38.855Z,6.43
2018-07-22T21:48:08.558Z,5.33
2018-07-22T21:50:38.289Z,6.80
2018-07-22T21:53:08.035Z,5.03
2018-07-22T21:55:37.890Z,6.27
2018-07-22T21:58:07.586Z,7.63
2018-07-22T22:00:42.285Z,7.27
2018-07-22T22:03:15.603Z,5.67
2018-07-22T22:05:45.231Z,5.97
2018-07-22T22:08:14.921Z,8.17
2018-07-22T22:10:44.592Z,7.47
2018-07-22T22:13:14.250Z,7.40
2018-07-22T22:15:43.901Z,6.77
2018-07-22T22:18:13.567Z,6.00
2018-07-22T22:20:43.259Z,9.53
2018-07-22T22:23:12.894Z,10.17
2018-07-22T22:25:42.546Z,8.53
2018-07-22T22:28:12.221Z,8.90
2018-07-22T22:30:41.853Z,7.27
2018-07-22T22:33:11.504Z,6.77
2018-07-22T22:35:41.257Z,7.97
2018-07-22T22:38:10.896Z,9.58
2018-07-22T22:40:40.525Z,8.17
2018-07-22T22:43:10.278Z,6.53
2018-07-22T22:45:39.913Z,8.70
2018-07-22T22:48:09.532Z,6.80
2018-07-22T22:50:39.271Z,6.97
2018-07-22T22:53:08.892Z,7.67
2018-07-22T22:55:38.567Z,9.40
2018-07-22T22:58:25.192Z,9.90
2018-07-22T23:00:54.941Z,7.60
2018-07-22T23:03:24.574Z,7.17
2018-07-22T23:05:54.262Z,7.00
2018-07-22T23:08:23.922Z,8.77
2018-07-22T23:10:53.576Z,10.10
2018-07-22T23:13:23.271Z,8.87
2018-07-22T23:15:52.898Z,9.00
2018-07-22T23:18:22.583Z,8.50
2018-07-22T23:20:52.205Z,8.33
2018-07-22T23:23:21.840Z,7.53
2018-07-22T23:25:51.735Z,10.23
2018-07-22T23:28:21.410Z,8.83
2018-07-22T23:30:51.028Z,7.30
2018-07-22T23:33:20.699Z,9.20
2018-07-22T23:35:51.211Z,8.20
2018-07-22T23:38:20.815Z,6.60
2018-07-22T23:40:50.510Z,10.43
2018-07-22T23:43:20.155Z,6.40
2018-07-22T23:45:49.880Z,7.20
2018-07-22T23:48:19.475Z,7.30
2018-07-22T23:50:49.125Z,6.20
2018-07-22T23:53:18.785Z,8.13
2018-07-22T23:55:48.473Z,7.27
2018-07-22T23:58:18.072Z,7.83
